Time;durP1;ratioP1;P1;durP2;ratioP2;P2;SDS_P1;SDS_P2;PMS_P1;PMS_P2;Temp;Humidity;BMP_temperature;BMP_pressure;BME280_temperature;BME280_humidity;BME280_pressure;Samples;Min_cycle;Max_cycle;Signal;HPM_P1;HPM_P2
2022/04/25 00:01:28;;;;;;;2.70;1.45;;;;;;;9.49;66.63;97763.78;5130138;28;20111;-72
2022/04/25 00:03:59;;;;;;;1.98;1.35;;;;;;;9.95;66.42;97839.63;5129753;28;20036;-72
2022/04/25 00:06:28;;;;;;;1.90;1.35;;;;;;;10.17;66.31;97860.00;5129838;28;20371;-72
2022/04/25 00:08:58;;;;;;;3.28;1.40;;;;;;;10.13;66.22;97862.03;5129781;28;20074;-72
2022/04/25 00:11:28;;;;;;;2.10;1.30;;;;;;;10.14;66.05;97866.38;5129817;28;20048;-72
2022/04/25 00:13:59;;;;;;;2.45;1.23;;;;;;;10.13;65.76;97866.50;5129981;28;20077;-72
2022/04/25 00:16:28;;;;;;;1.95;1.17;;;;;;;10.14;65.50;97860.25;5129960;28;20027;-72
2022/04/25 00:19:01;;;;;;;1.45;1.00;;;;;;;10.08;65.32;97853.63;5129899;28;20047;-72
2022/04/25 00:21:29;;;;;;;1.45;1.00;;;;;;;10.05;65.20;97853.84;5129593;28;20055;-72
2022/04/25 00:23:59;;;;;;;1.63;1.10;;;;;;;10.01;65.38;97854.19;5129568;28;20077;-72
2022/04/25 00:26:29;;;;;;;1.50;1.10;;;;;;;10.01;65.17;97854.19;5129542;28;20051;-71
2022/04/25 00:28:59;;;;;;;1.58;1.10;;;;;;;10.01;64.97;97852.41;5129977;28;20039;-72
2022/04/25 00:31:29;;;;;;;1.45;1.08;;;;;;;9.93;64.87;97855.63;5129844;28;20059;-73
2022/04/25 00:34:01;;;;;;;1.77;1.17;;;;;;;9.93;64.88;97854.78;5129718;28;20054;-73
2022/04/25 00:36:29;;;;;;;1.63;1.10;;;;;;;9.95;64.62;97844.94;5128740;28;20303;-73
2022/04/25 00:39:00;;;;;;;1.48;1.10;;;;;;;9.42;64.68;97762.56;5129056;28;20311;-72
2022/04/25 00:41:30;;;;;;;1.20;1.00;;;;;;;8.64;64.37;97667.91;5130175;28;20039;-72
2022/04/25 00:44:00;;;;;;;1.30;1.00;;;;;;;9.90;64.34;97857.66;5132004;28;20085;-72
2022/04/25 00:46:30;;;;;;;1.27;1.00;;;;;;;8.25;64.16;97592.50;5130110;28;20035;-72
2022/04/25 00:49:01;;;;;;;1.52;1.10;;;;;;;9.88;63.92;97857.78;5129401;28;20035;-72
2022/04/25 00:51:30;;;;;;;1.27;1.00;;;;;;;9.86;64.43;97859.72;5129328;28;20036;-72
2022/04/25 00:54:00;;;;;;;1.40;1.08;;;;;;;9.87;64.27;97855.25;5129257;28;20084;-72
2022/04/25 00:56:31;;;;;;;1.27;1.00;;;;;;;9.86;64.16;97865.00;5128818;27;20039;-72
2022/04/25 00:59:01;;;;;;;1.15;0.93;;;;;;;9.38;64.23;97792.78;5129124;28;20066;-72
2022/04/25 01:01:32;;;;;;;1.30;1.00;;;;;;;9.86;64.24;97851.78;5128995;28;20104;-72
2022/04/25 01:04:03;;;;;;;1.48;1.00;;;;;;;9.87;64.14;97850.81;5128734;28;20039;-72
2022/04/25 01:06:31;;;;;;;1.30;0.98;;;;;;;7.66;63.77;97489.56;5128653;28;20035;-72
2022/04/25 01:09:01;;;;;;;1.33;1.00;;;;;;;9.61;63.93;97818.38;5128513;28;20027;-71
2022/04/25 01:11:31;;;;;;;1.48;1.00;;;;;;;9.05;63.97;97745.91;5128653;28;20054;-72
2022/04/25 01:14:12;;;;;;;1.38;1.00;;;;;;;9.89;64.15;97862.13;5128564;28;20035;-72
2022/04/25 01:16:47;;;;;;;1.00;0.90;;;;;;;9.93;63.85;97854.78;5128708;28;20081;-72
2022/04/25 01:19:21;;;;;;;1.10;0.90;;;;;;;9.93;63.84;97860.94;5128729;28;20084;-72
2022/04/25 01:21:58;;;;;;;1.27;1.15;;;;;;;9.11;63.68;97712.88;5128297;28;20047;-72
2022/04/25 01:27:22;;;;;;;1.08;0.93;;;;;;;9.20;63.85;97718.34;5128222;28;20348;-72
2022/04/25 01:29:55;;;;;;;1.33;1.00;;;;;;;8.78;63.79;97644.94;5128225;28;20092;-72
2022/04/25 01:32:28;;;;;;;1.30;1.00;;;;;;;10.04;63.65;97851.31;5128466;27;20047;-72
2022/04/25 01:35:00;;;;;;;1.27;1.17;;;;;;;10.10;63.53;97846.41;5127267;28;20349;-72
2022/04/25 01:37:32;;;;;;;1.38;1.00;;;;;;;10.09;63.37;97844.72;5127848;28;20101;-72
2022/04/25 01:40:07;;;;;;;1.30;1.00;;;;;;;10.09;63.66;97849.16;5127908;28;20089;-71
2022/04/25 01:42:39;;;;;;;1.00;0.90;;;;;;;9.88;63.48;97804.03;5128170;28;20042;-72
2022/04/25 01:45:11;;;;;;;1.60;1.00;;;;;;;9.09;63.51;97722.72;5128124;28;20043;-71
2022/04/25 01:47:44;;;;;;;3.20;1.05;;;;;;;10.07;63.72;97854.56;5128074;28;20036;-72
2022/04/25 01:50:16;;;;;;;1.25;0.95;;;;;;;10.10;63.79;97857.00;5127847;28;20048;-71
2022/04/25 01:52:49;;;;;;;1.15;0.93;;;;;;;10.08;63.71;97858.06;5127739;28;20047;-72
2022/04/25 01:55:23;;;;;;;1.00;0.90;;;;;;;10.10;63.76;97851.69;5127785;28;20280;-72
2022/04/25 01:57:55;;;;;;;1.60;1.10;;;;;;;10.12;63.58;97859.53;5127071;28;20097;-72
2022/04/25 02:00:27;;;;;;;1.02;0.90;;;;;;;10.15;63.61;97861.94;5127796;28;20043;-72
2022/04/25 02:03:00;;;;;;;1.00;0.90;;;;;;;9.16;63.70;97729.25;5127771;28;20093;-72
2022/04/25 02:05:32;;;;;;;1.40;1.00;;;;;;;10.13;63.75;97864.69;5127519;27;20040;-72
2022/04/25 02:08:05;;;;;;;1.77;1.08;;;;;;;9.37;63.67;97734.75;5127657;28;20077;-72
2022/04/25 02:10:38;;;;;;;1.13;1.00;;;;;;;10.19;63.75;97858.94;5127376;28;20065;-72
2022/04/25 02:13:11;;;;;;;1.60;1.10;;;;;;;10.21;63.51;97850.88;5126540;28;20040;-72
2022/04/25 02:15:43;;;;;;;1.17;0.90;;;;;;;10.21;63.49;97850.88;5127262;28;20096;-72
2022/04/25 02:18:16;;;;;;;1.50;1.17;;;;;;;10.21;63.67;97854.34;5127185;28;20035;-72
2022/04/25 02:20:48;;;;;;;1.10;0.90;;;;;;;10.25;63.54;97849.66;5126489;28;20081;-72
2022/04/25 02:23:20;;;;;;;1.02;0.93;;;;;;;10.30;63.18;97852.81;5127412;28;20088;-72
2022/04/25 02:25:54;;;;;;;2.58;1.20;;;;;;;10.28;63.27;97852.91;5126221;28;20035;-72
2022/04/25 02:28:27;;;;;;;1.63;1.00;;;;;;;10.27;63.29;97853.88;5126958;28;20349;-72
2022/04/25 02:30:59;;;;;;;1.52;1.10;;;;;;;10.29;63.30;97853.75;5126987;28;20085;-72
2022/04/25 02:33:32;;;;;;;0.95;0.90;;;;;;;10.27;63.54;97864.47;5126904;28;20078;-72
2022/04/25 02:36:05;;;;;;;1.10;0.98;;;;;;;10.29;63.55;97851.13;5126629;28;20104;-72
2022/04/25 02:38:38;;;;;;;1.20;1.10;;;;;;;10.26;63.65;97854.84;5126834;28;20062;-72
2022/04/25 02:41:12;;;;;;;1.10;0.90;;;;;;;10.32;63.57;97850.03;5126716;28;20044;-72
2022/04/25 02:43:45;;;;;;;1.00;0.90;;;;;;;10.31;63.60;97845.69;5126230;28;20039;-72
2022/04/25 02:46:18;;;;;;;1.10;1.00;;;;;;;10.27;63.75;97855.69;5126664;28;20045;-72
2022/04/25 02:48:50;;;;;;;1.42;1.00;;;;;;;10.25;63.66;97849.66;5126629;28;20242;-72
2022/04/25 02:51:22;;;;;;;3.30;1.02;;;;;;;9.91;63.32;97801.13;5126599;28;20325;-72
2022/04/25 02:53:55;;;;;;;1.27;1.00;;;;;;;8.41;63.90;97557.06;5126807;28;20039;-72
2022/04/25 02:56:29;;;;;;;1.33;1.00;;;;;;;10.18;64.14;97857.25;5125804;28;20081;-72
2022/04/25 02:59:01;;;;;;;1.52;1.35;;;;;;;10.15;64.14;97860.13;5126794;28;20043;-72
2022/04/25 03:01:31;;;;;;;1.30;1.00;;;;;;;10.16;64.00;97855.69;5126358;28;20237;-72
2022/04/25 03:04:01;;;;;;;1.13;0.90;;;;;;;10.15;63.98;97856.63;5126603;28;20039;-72
2022/04/25 03:06:32;;;;;;;1.70;1.00;;;;;;;9.94;63.90;97840.59;5126565;28;20036;-72
2022/04/25 03:09:02;;;;;;;1.20;1.00;;;;;;;10.17;64.04;97849.41;5127102;28;20054;-72
2022/04/25 03:11:35;;;;;;;1.40;1.10;;;;;;;10.13;64.20;97855.91;5126231;28;20122;-72
2022/04/25 03:14:07;;;;;;;1.20;1.00;;;;;;;10.08;64.51;97850.13;5125656;28;20210;-72
2022/04/25 03:16:37;;;;;;;1.55;1.00;;;;;;;10.03;64.70;97865.50;5126095;28;20085;-72
2022/04/25 03:19:08;;;;;;;1.55;1.00;;;;;;;10.06;64.41;97850.25;5125877;28;20291;-72
2022/04/25 03:21:37;;;;;;;2.28;1.23;;;;;;;9.57;64.52;97789.66;5125431;28;20279;-72
2022/04/25 03:24:07;;;;;;;1.30;1.00;;;;;;;10.02;64.91;97854.09;5126621;28;20047;-72
2022/04/25 03:26:39;;;;;;;1.50;1.10;;;;;;;10.04;65.05;97869.84;5126271;28;20092;-72
2022/04/25 03:29:08;;;;;;;1.38;1.00;;;;;;;9.99;65.11;97875.50;5126151;28;20311;-72
2022/04/25 03:31:38;;;;;;;1.20;1.00;;;;;;;10.03;64.85;97870.81;5126047;28;20101;-71
2022/04/25 03:34:08;;;;;;;1.40;1.20;;;;;;;10.02;64.86;97872.63;5125857;28;20053;-71
2022/04/25 03:36:38;;;;;;;1.42;1.10;;;;;;;10.00;65.26;97886.94;5125310;28;20058;-72
2022/04/25 03:39:08;;;;;;;1.25;1.00;;;;;;;10.01;65.07;97886.81;5126052;28;20031;-72
2022/04/25 03:41:39;;;;;;;1.20;1.00;;;;;;;9.97;65.45;97887.16;5125881;28;20343;-72
2022/04/25 03:44:08;;;;;;;1.50;1.10;;;;;;;10.00;65.26;97887.78;5126327;28;20072;-72
2022/04/25 03:46:38;;;;;;;1.35;1.00;;;;;;;9.95;65.98;97885.47;5126055;28;20081;-72
2022/04/25 03:49:08;;;;;;;1.70;1.20;;;;;;;9.22;65.38;97763.19;5125727;28;20060;-72
2022/04/25 03:51:38;;;;;;;1.10;1.00;;;;;;;9.97;65.51;97892.44;5125942;28;20043;-72
2022/04/25 03:54:09;;;;;;;1.23;1.00;;;;;;;9.95;66.11;97901.34;5124925;28;20147;-72
2022/04/25 03:59:30;;;;;;;1.40;1.10;;;;;;;9.91;65.93;97881.38;5125865;28;20363;-73
2022/04/25 04:02:05;;;;;;;1.60;1.00;;;;;;;9.96;65.71;97886.31;5125489;28;20044;-72
2022/04/25 04:04:37;;;;;;;1.50;1.10;;;;;;;9.93;66.02;97887.38;5125844;28;20040;-72
2022/04/25 04:07:10;;;;;;;1.00;0.90;;;;;;;9.90;66.40;97898.22;5125881;28;20085;-72
2022/04/25 04:09:49;;;;;;;1.33;1.00;;;;;;;9.87;66.86;97892.31;5125611;28;20181;-72
2022/04/25 04:12:25;;;;;;;1.60;1.00;;;;;;;9.84;66.87;97898.66;5125817;28;20088;-72
2022/04/25 04:14:58;;;;;;;2.03;1.15;;;;;;;9.88;66.50;97892.19;5124735;28;20040;-72
2022/04/25 04:17:30;;;;;;;1.92;1.30;;;;;;;9.91;66.09;97899.91;5125486;28;20043;-72
2022/04/25 04:20:03;;;;;;;3.05;1.92;;;;;;;9.95;66.09;97900.50;5125822;28;20040;-72
2022/04/25 04:22:36;;;;;;;2.30;1.40;;;;;;;9.99;65.94;97899.31;5125650;28;20088;-72
2022/04/25 04:25:11;;;;;;;2.28;1.40;;;;;;;10.01;66.35;97905.34;5125557;28;20039;-72
2022/04/25 04:27:45;;;;;;;1.63;1.10;;;;;;;10.01;66.11;97904.50;5125360;28;20035;-72
2022/04/25 04:30:17;;;;;;;1.42;1.10;;;;;;;10.04;66.20;97904.25;5124575;28;20039;-72
2022/04/25 04:32:51;;;;;;;1.30;1.00;;;;;;;8.92;66.43;97724.84;5125585;28;20051;-72
2022/04/25 04:38:13;;;;;;;1.25;1.10;;;;;;;10.06;66.27;97911.13;5086915;28;20051;-72
2022/04/25 04:40:45;;;;;;;1.83;1.45;;;;;;;10.09;66.24;97918.84;5124541;28;20207;-72
2022/04/25 04:43:18;;;;;;;3.33;1.30;;;;;;;8.22;66.62;97615.63;5124574;28;20054;-72
2022/04/25 04:45:51;;;;;;;1.38;1.00;;;;;;;10.09;66.85;97918.00;5129267;28;20355;-72
2022/04/25 04:48:23;;;;;;;2.95;1.30;;;;;;;8.51;66.63;97675.06;5128605;28;20043;-72
2022/04/25 04:50:56;;;;;;;1.83;1.17;;;;;;;10.06;66.77;97931.47;5129130;28;20039;-72
2022/04/25 04:53:28;;;;;;;1.42;1.00;;;;;;;10.10;67.02;97946.16;5129136;28;20241;-72
2022/04/25 04:56:00;;;;;;;2.53;1.13;;;;;;;10.10;67.02;97940.84;5128774;28;20039;-72
2022/04/25 04:58:34;;;;;;;1.48;1.10;;;;;;;10.10;67.14;97944.34;5127961;28;20039;-72
2022/04/25 05:01:07;;;;;;;1.30;1.05;;;;;;;10.09;67.19;97945.31;5128701;28;20344;-72
2022/04/25 05:03:41;;;;;;;1.38;1.00;;;;;;;10.10;67.19;97949.63;5128572;28;20124;-72
2022/04/25 05:06:14;;;;;;;1.65;1.00;;;;;;;10.17;67.00;97955.31;5128738;28;20272;-72
2022/04/25 05:08:46;;;;;;;2.05;1.10;;;;;;;9.96;66.81;97918.06;5128710;28;20087;-72
2022/04/25 05:11:18;;;;;;;1.20;1.00;;;;;;;10.21;66.77;97962.06;5128335;28;20101;-72
2022/04/25 05:13:51;;;;;;;1.77;1.05;;;;;;;10.19;67.08;97969.28;5128471;28;20065;-71
2022/04/25 05:16:24;;;;;;;1.13;0.90;;;;;;;10.15;67.02;97962.53;5128529;28;20044;-72
2022/04/25 05:18:56;;;;;;;1.55;1.00;;;;;;;10.16;67.33;97972.16;5128270;28;20085;-72
2022/04/25 05:21:28;;;;;;;1.33;1.00;;;;;;;10.17;67.00;97969.41;5127440;28;20272;-72
2022/04/25 05:24:00;;;;;;;1.83;1.13;;;;;;;10.21;67.05;97977.94;5128465;28;20206;-72
2022/04/25 05:26:31;;;;;;;3.05;1.15;;;;;;;10.27;66.90;97974.84;5127672;28;20044;-72
2022/04/25 05:29:02;;;;;;;2.50;1.10;;;;;;;10.24;67.03;97986.50;5128569;28;20035;-71
2022/04/25 05:31:31;;;;;;;2.03;1.15;;;;;;;10.27;66.89;97986.28;5127983;28;20039;-72
2022/04/25 05:34:01;;;;;;;2.17;1.15;;;;;;;10.27;67.20;97988.09;5127736;28;20111;-72
2022/04/25 05:36:31;;;;;;;1.98;1.33;;;;;;;10.27;66.94;97983.63;5127522;28;20059;-72
2022/04/25 05:39:01;;;;;;;2.80;1.30;;;;;;;4.62;66.98;97046.34;5128437;28;20063;-72
2022/04/25 05:41:31;;;;;;;1.50;1.00;;;;;;;10.33;67.04;97994.72;5127776;28;20081;-72
2022/04/25 05:44:03;;;;;;;1.50;1.10;;;;;;;10.39;67.00;97983.66;5127636;28;20150;-72
2022/04/25 05:46:33;;;;;;;1.65;1.08;;;;;;;8.75;66.95;97722.59;5127705;28;20101;-72
2022/04/25 05:52:02;;;;;;;1.98;1.30;;;;;;;10.48;67.04;98006.78;5127619;28;20139;-71
2022/04/25 05:54:36;;;;;;;1.77;1.20;;;;;;;10.49;67.03;98006.69;5127472;28;20043;-71
2022/04/25 05:57:08;;;;;;;4.78;1.30;;;;;;;10.50;67.15;98005.72;5127436;28;20043;-72
2022/04/25 05:59:42;;;;;;;1.40;1.08;;;;;;;10.51;67.13;98012.72;5126807;28;20050;-72
2022/04/25 06:02:16;;;;;;;1.75;1.10;;;;;;;9.21;66.94;97814.34;5127260;28;20040;-72
2022/04/25 06:04:49;;;;;;;2.00;1.20;;;;;;;10.57;67.10;98008.75;5127310;28;20039;-72
2022/04/25 06:07:21;;;;;;;1.98;1.30;;;;;;;10.59;66.95;98006.81;5126538;28;20040;-72
2022/04/25 06:09:53;;;;;;;1.98;1.30;;;;;;;10.61;66.80;98020.78;5127399;28;20241;-71
2022/04/25 06:12:26;;;;;;;1.60;1.10;;;;;;;10.66;66.67;98020.44;5127309;28;20096;-72
2022/04/25 06:15:00;;;;;;;2.47;1.20;;;;;;;10.68;66.69;98026.47;5127168;28;20047;-72
2022/04/25 06:17:33;;;;;;;1.42;1.23;;;;;;;10.71;66.50;98026.25;5127380;28;20036;-72
2022/04/25 06:20:06;;;;;;;2.10;1.30;;;;;;;10.78;66.47;98040.75;5126303;28;20046;-72
2022/04/25 06:22:39;;;;;;;2.00;1.20;;;;;;;10.81;66.50;98041.34;5126961;28;20047;-72
2022/04/25 06:25:11;;;;;;;1.52;1.23;;;;;;;10.85;66.21;98034.00;5127297;28;20084;-71
2022/04/25 06:27:44;;;;;;;2.40;1.38;;;;;;;10.88;66.32;98039.91;5126989;28;20043;-72
2022/04/25 06:30:18;;;;;;;1.92;1.20;;;;;;;10.87;66.37;98047.97;5127220;28;20080;-72
2022/04/25 06:32:50;;;;;;;1.55;1.10;;;;;;;10.56;66.30;98007.91;5127355;28;20092;-72
2022/04/25 06:35:22;;;;;;;1.60;1.13;;;;;;;10.84;66.08;98043.75;5126962;27;20050;-72
2022/04/25 06:37:54;;;;;;;2.10;1.23;;;;;;;10.82;66.50;98050.13;5125754;28;20073;-72
2022/04/25 06:40:27;;;;;;;2.10;1.52;;;;;;;10.83;66.59;98049.19;5126693;28;20287;-71
2022/04/25 06:42:59;;;;;;;2.63;1.20;;;;;;;10.82;66.50;98050.13;5126431;28;20085;-72
2022/04/25 06:45:33;;;;;;;1.77;1.20;;;;;;;9.68;66.27;97863.75;5126083;28;20050;-72
2022/04/25 06:48:06;;;;;;;3.10;1.60;;;;;;;10.91;66.30;98050.28;5126951;28;20168;-72
2022/04/25 06:50:38;;;;;;;2.22;1.40;;;;;;;10.90;66.12;98063.66;5126481;28;20040;-72
2022/04/25 06:53:11;;;;;;;2.15;1.38;;;;;;;8.41;65.91;97630.97;5126727;28;20089;-72
2022/04/25 06:55:43;;;;;;;1.90;1.20;;;;;;;9.73;66.02;97873.97;5125883;28;20051;-72
2022/04/25 06:58:15;;;;;;;2.35;1.42;;;;;;;10.19;65.80;97937.50;5126752;28;20226;-72
2022/04/25 07:00:49;;;;;;;3.78;1.88;;;;;;;10.75;65.84;98017.94;5126420;28;20051;-72
2022/04/25 07:03:24;;;;;;;2.47;1.70;;;;;;;11.44;64.85;98052.34;5126600;28;20044;-72
2022/04/25 07:05:56;;;;;;;1.83;1.30;;;;;;;11.67;64.17;98059.31;5126583;27;20093;-72
2022/04/25 07:08:28;;;;;;;4.20;2.10;;;;;;;11.53;63.80;98019.78;5125446;28;20058;-72
2022/04/25 07:11:00;;;;;;;3.20;1.95;;;;;;;11.82;63.88;98043.97;5126657;28;20283;-71
2022/04/25 07:13:33;;;;;;;2.72;1.48;;;;;;;12.14;63.24;98041.38;5126553;28;20043;-72
2022/04/25 07:16:07;;;;;;;4.63;1.60;;;;;;;12.43;62.63;98049.63;5126232;28;20299;-71
2022/04/25 07:18:40;;;;;;;2.03;1.35;;;;;;;12.33;62.50;98020.31;5126290;28;20084;-72
2022/04/25 07:29:37;;;;;;;2.40;1.75;;;;;;;13.41;60.09;98050.91;5126165;28;20085;-72
2022/04/25 07:32:11;;;;;;;2.47;1.40;;;;;;;13.27;59.77;98063.75;5125864;28;20043;-72
2022/04/25 07:34:46;;;;;;;2.50;1.67;;;;;;;12.18;60.61;97896.78;5126115;28;20043;-72
2022/04/25 07:37:22;;;;;;;2.85;1.80;;;;;;;13.12;60.24;98055.25;5125691;28;20048;-72
2022/04/25 07:39:56;;;;;;;2.70;1.80;;;;;;;13.06;60.11;98045.16;5126145;28;20039;-71
2022/04/25 07:42:29;;;;;;;2.80;1.87;;;;;;;13.19;60.21;98047.59;5125140;28;20043;-72
2022/04/25 07:45:01;;;;;;;2.50;1.67;;;;;;;11.69;59.83;97781.38;5125882;28;20043;-72
2022/04/25 07:47:35;;;;;;;2.55;1.77;;;;;;;13.36;59.32;98055.81;5126010;28;20092;-72
2022/04/25 07:50:08;;;;;;;3.97;2.38;;;;;;;13.35;59.06;98061.25;5124836;28;20044;-72
2022/04/25 07:52:40;;;;;;;3.00;2.13;;;;;;;13.35;60.12;98069.25;5125184;28;20035;-72
2022/04/25 07:55:12;;;;;;;5.05;2.30;;;;;;;13.29;59.83;98064.44;5125798;28;20139;-71
2022/04/25 07:57:45;;;;;;;2.83;1.95;;;;;;;13.27;59.81;98074.38;5125755;28;20333;-72
2022/04/25 08:00:17;;;;;;;2.63;1.83;;;;;;;11.48;59.95;97776.06;5125562;28;20291;-72
2022/04/25 08:02:51;;;;;;;3.45;2.28;;;;;;;13.46;59.55;98070.03;5125747;28;20035;-71
2022/04/25 08:05:23;;;;;;;2.70;1.90;;;;;;;13.32;59.19;98021.63;5125672;28;20284;-72
2022/04/25 08:07:55;;;;;;;3.22;1.88;;;;;;;13.63;58.79;98094.31;5124839;28;20088;-72
2022/04/25 08:10:28;;;;;;;3.65;1.70;;;;;;;13.26;58.75;98044.28;5125819;28;20057;-71
2022/04/25 08:18:40;;;;;;;3.72;2.15;;;;;;;13.15;59.24;98105.53;5125156;28;20053;-70
2022/04/25 08:21:14;;;;;;;2.75;1.73;;;;;;;12.62;59.40;98025.84;5129194;28;20249;-71
2022/04/25 08:23:47;;;;;;;4.93;1.90;;;;;;;13.20;59.94;98110.47;5111198;28;20044;-70
2022/04/25 08:26:19;;;;;;;3.35;1.80;;;;;;;13.24;59.00;98101.25;5128441;28;20047;-71
2022/04/25 08:28:52;;;;;;;2.22;1.50;;;;;;;12.25;59.16;97963.50;5129435;28;20043;-71
2022/04/25 08:31:24;;;;;;;2.58;1.60;;;;;;;13.38;59.00;98119.53;5128898;28;20043;-71
2022/04/25 08:33:58;;;;;;;2.90;1.77;;;;;;;13.51;58.44;98122.00;5129160;28;20089;-71
2022/04/25 08:36:31;;;;;;;2.67;1.55;;;;;;;13.60;57.99;98130.03;5128941;28;20089;-71
2022/04/25 08:39:04;;;;;;;3.08;1.80;;;;;;;13.51;57.20;98103.38;5129293;27;20035;-71
2022/04/25 08:41:40;;;;;;;2.53;1.75;;;;;;;13.70;56.36;98117.63;5129365;28;20039;-71
2022/04/25 08:44:10;;;;;;;2.65;1.65;;;;;;;13.78;56.28;98127.59;5111137;28;20066;-71
2022/04/25 08:46:44;;;;;;;3.53;2.13;;;;;;;13.95;56.20;98121.63;5129139;27;20036;-71
2022/04/25 08:49:19;;;;;;;2.78;1.65;;;;;;;14.16;55.32;98131.34;5128943;28;20050;-71
2022/04/25 08:51:58;;;;;;;2.58;1.70;;;;;;;13.25;54.55;97924.69;5129218;28;20040;-70
2022/04/25 08:54:32;;;;;;;3.00;1.80;;;;;;;14.32;55.06;98107.69;5129197;28;20088;-71
2022/04/25 08:57:06;;;;;;;;;;;;;;;14.21;53.29;98121.97;5128951;28;20056;-71
2022/04/25 08:59:38;;;;;;;2.58;1.70;;;;;;;14.25;55.75;98125.22;5129144;28;19927;-71
2022/04/25 09:02:13;;;;;;;2.72;1.90;;;;;;;14.12;54.24;98083.69;5128395;28;20298;-71
2022/04/25 09:04:46;;;;;;;;;;;;;;;14.33;53.54;98128.03;5129574;27;20044;-71
2022/04/25 09:07:18;;;;;;;2.95;1.90;;;;;;;14.40;55.66;98123.84;5128110;28;19915;-71
2022/04/25 09:09:50;;;;;;;2.80;1.85;;;;;;;14.41;54.83;98137.03;5128786;28;20040;-70
2022/04/25 09:12:23;;;;;;;2.67;1.98;;;;;;;14.20;55.26;98135.44;5128823;28;20265;-71
2022/04/25 09:14:56;;;;;;;3.15;2.00;;;;;;;14.31;55.54;98157.47;5128140;28;20043;-71
2022/04/25 09:17:29;;;;;;;2.60;1.90;;;;;;;14.24;54.71;98174.16;5128279;28;20047;-71
2022/04/25 09:20:05;;;;;;;2.58;1.80;;;;;;;14.18;54.57;98162.22;5127608;28;20039;-71
2022/04/25 09:22:39;;;;;;;3.70;2.20;;;;;;;14.18;55.14;98159.56;5128418;28;20053;-71
2022/04/25 09:25:12;;;;;;;3.03;1.88;;;;;;;14.16;55.12;98132.19;5128311;28;20292;-71
2022/04/25 09:27:47;;;;;;;2.20;1.60;;;;;;;13.70;54.69;98037.75;5128389;28;20065;-71
2022/04/25 09:30:21;;;;;;;2.95;2.00;;;;;;;14.73;53.94;98171.50;5127274;28;20048;-71
2022/04/25 09:32:54;;;;;;;2.88;1.58;;;;;;;14.79;54.09;98161.25;5128635;28;20050;-71
2022/04/25 09:35:32;;;;;;;2.15;1.60;;;;;;;14.85;53.12;98174.03;5127459;28;20295;-71
2022/04/25 09:38:06;;;;;;;3.53;1.92;;;;;;;14.85;53.74;98180.22;5128136;28;20039;-71
2022/04/25 09:40:41;;;;;;;4.10;1.80;;;;;;;14.95;53.16;98186.38;5128099;28;20043;-71
2022/04/25 09:43:14;;;;;;;;;;;;;;;14.83;52.15;98171.50;5128903;28;20382;-71
2022/04/25 09:45:46;;;;;;;3.15;1.73;;;;;;;13.48;54.01;97958.09;5127006;28;20079;-71
2022/04/25 09:48:19;;;;;;;3.33;1.50;;;;;;;14.78;53.32;98128.41;5127355;28;20043;-71
2022/04/25 09:51:00;;;;;;;2.55;1.55;;;;;;;14.27;50.96;98038.81;5127746;28;20084;-71
2022/04/25 09:53:44;;;;;;;2.65;1.80;;;;;;;15.42;50.47;98185.66;5127701;28;20043;-71
2022/04/25 09:56:18;;;;;;;2.55;1.75;;;;;;;15.51;51.68;98185.63;5127857;28;20043;-71
2022/04/25 09:59:00;;;;;;;3.70;1.60;;;;;;;14.61;50.26;98023.28;5127868;28;20039;-71
2022/04/25 10:01:34;;;;;;;2.60;1.83;;;;;;;13.87;51.78;97897.75;5127475;27;20061;-71
2022/04/25 10:04:27;;;;;;;2.63;1.73;;;;;;;15.79;51.46;98173.22;5127170;28;20049;-71
2022/04/25 10:07:03;;;;;;;2.42;1.65;;;;;;;15.97;50.16;98190.16;5127144;28;20057;-71
2022/04/25 10:09:36;;;;;;;2.80;1.95;;;;;;;16.05;50.00;98168.03;5126548;28;20040;-71
2022/04/25 10:12:09;;;;;;;2.95;1.83;;;;;;;16.24;50.54;98175.13;5127191;28;20044;-71
2022/04/25 10:14:42;;;;;;;2.80;2.00;;;;;;;16.15;48.83;98133.25;5127057;28;20050;-71
2022/04/25 10:17:15;;;;;;;3.15;2.20;;;;;;;16.19;49.16;98167.56;5126913;28;20054;-71
2022/04/25 10:19:48;;;;;;;4.32;2.55;;;;;;;16.00;49.98;98154.28;5127316;28;20044;-71
2022/04/25 10:22:24;;;;;;;2.70;1.95;;;;;;;16.00;48.17;98181.00;5127033;28;20300;-71
2022/04/25 10:24:56;;;;;;;3.10;2.10;;;;;;;15.85;49.67;98177.13;5126997;28;20085;-71
2022/04/25 10:27:31;;;;;;;3.05;2.25;;;;;;;15.95;50.37;98196.63;5126858;28;20085;-71
2022/04/25 10:30:10;;;;;;;3.13;2.25;;;;;;;15.98;47.81;98185.66;5126865;28;20089;-71
2022/04/25 10:32:43;;;;;;;3.08;2.03;;;;;;;15.37;49.50;98084.63;5126306;28;20287;-71
2022/04/25 10:35:19;;;;;;;2.75;2.00;;;;;;;16.19;49.14;98175.56;5126797;28;20086;-71
2022/04/25 10:37:53;;;;;;;3.40;2.35;;;;;;;16.37;47.67;98159.56;5126734;28;20104;-71
2022/04/25 10:46:20;;;;;;;2.90;2.50;;;;;;;16.34;48.20;98184.78;5126127;28;20439;-72
2022/04/25 10:49:06;;;;;;;3.60;2.55;;;;;;;16.30;46.24;98204.78;5126532;28;20324;-71
2022/04/25 10:51:41;;;;;;;2.92;2.45;;;;;;;16.39;46.92;98191.50;5126496;28;20274;-71
2022/04/25 10:54:12;;;;;;;4.10;3.20;;;;;;;16.26;46.82;98198.06;5126405;28;20063;-71
2022/04/25 10:57:14;;;;;;;3.58;2.83;;;;;;;15.45;46.38;98079.41;5126691;28;20063;-71
2022/04/25 10:59:46;;;;;;;3.15;2.47;;;;;;;16.28;48.38;98189.88;5126512;28;20050;-71
2022/04/25 11:02:23;;;;;;;4.07;2.65;;;;;;;16.42;47.46;98212.59;5126488;28;20088;-71
2022/04/25 11:05:40;;;;;;;5.57;2.92;;;;;;;16.31;45.65;98195.78;5109708;28;20080;-71
2022/04/25 11:08:33;;;;;;;3.92;3.22;;;;;;;15.90;46.13;98156.16;5067970;28;20078;-71
2022/04/25 11:11:18;;;;;;;4.18;3.17;;;;;;;15.95;46.62;98167.25;5125315;28;20047;-71
2022/04/25 11:14:17;;;;;;;4.35;2.72;;;;;;;16.19;46.43;98217.50;5126103;28;20084;-71
2022/04/25 11:17:12;;;;;;;3.95;2.92;;;;;;;16.01;47.51;98202.25;5091186;28;20052;-71
2022/04/25 11:19:48;;;;;;;4.90;2.90;;;;;;;15.28;48.67;98083.69;5126154;28;20202;-71
2022/04/25 11:22:54;;;;;;;3.15;2.30;;;;;;;16.38;46.47;98213.91;5125518;28;20093;-71
2022/04/25 11:25:42;;;;;;;4.50;3.20;;;;;;;16.40;45.03;98186.00;5125185;28;20218;-71
2022/04/25 11:28:17;;;;;;;3.30;2.85;;;;;;;16.53;46.09;98185.66;5125925;28;20043;-71
2022/04/25 11:31:24;;;;;;;4.00;2.75;;;;;;;16.57;43.29;98213.78;5126033;28;20043;-71
2022/04/25 11:33:59;;;;;;;3.30;2.97;;;;;;;16.54;45.08;98217.59;5125955;28;20295;-71
2022/04/25 11:36:33;;;;;;;4.70;3.47;;;;;;;16.58;45.30;98244.91;5124930;28;20063;-71
2022/04/25 11:41:56;;;;;;;4.32;3.22;;;;;;;16.47;45.03;98237.06;5126041;28;20287;-71
2022/04/25 11:44:30;;;;;;;8.52;3.67;;;;;;;16.52;44.82;98240.97;5125335;28;20292;-71
2022/04/25 11:47:02;;;;;;;4.32;3.05;;;;;;;16.50;45.46;98236.78;5125721;28;20242;-71
2022/04/25 11:49:37;;;;;;;4.35;3.03;;;;;;;16.51;44.87;98239.31;5125227;28;20292;-72
2022/04/25 11:52:15;;;;;;;4.15;3.20;;;;;;;16.58;44.31;98226.16;5126023;28;20040;-71
2022/04/25 11:54:47;;;;;;;4.20;3.22;;;;;;;15.07;44.83;97982.47;5129915;28;20080;-71
2022/04/25 11:57:20;;;;;;;3.80;3.00;;;;;;;16.74;44.96;98246.94;5129153;28;20198;-71
2022/04/25 12:00:12;;;;;;;4.53;3.35;;;;;;;16.79;43.35;98237.47;5129888;28;20036;-70
2022/04/25 12:02:45;;;;;;;4.43;3.42;;;;;;;16.80;45.15;98252.53;5129131;28;20052;-70
2022/04/25 12:05:26;;;;;;;4.72;3.22;;;;;;;16.74;43.38;98244.28;5129587;28;20092;-71
2022/04/25 12:16:38;;;;;;;4.22;3.08;;;;;;;17.07;45.10;98253.50;5129402;28;20088;-70
2022/04/25 12:19:12;;;;;;;12.50;3.63;;;;;;;17.17;44.52;98240.88;5129728;28;20076;-70
2022/04/25 12:21:47;;;;;;;5.50;3.95;;;;;;;16.77;44.51;98177.94;5129755;28;20043;-70
2022/04/25 12:24:19;;;;;;;4.35;3.60;;;;;;;17.19;43.46;98244.22;5129255;28;20080;-70
2022/04/25 12:26:52;;;;;;;5.93;3.70;;;;;;;17.00;44.02;98264.81;5129494;28;20276;-71
2022/04/25 12:29:24;;;;;;;4.88;3.90;;;;;;;17.09;43.61;98270.25;5129388;28;20039;-71
2022/04/25 12:31:59;;;;;;;5.05;4.47;;;;;;;16.90;44.68;98276.56;5128658;28;20043;-70
2022/04/25 12:34:33;;;;;;;5.75;3.60;;;;;;;16.75;45.56;98270.88;5129070;28;20245;-71
2022/04/25 12:37:06;;;;;;;4.13;3.38;;;;;;;16.41;46.41;98245.69;5129147;28;20125;-71
2022/04/25 12:39:38;;;;;;;6.30;3.88;;;;;;;16.54;46.35;98286.31;5129117;28;20307;-71
2022/04/25 12:42:11;;;;;;;5.18;4.38;;;;;;;16.56;47.32;98298.53;5129090;28;20043;-72
2022/04/25 12:44:58;;;;;;;5.78;4.60;;;;;;;16.12;45.90;98230.63;5128223;28;20039;-72
2022/04/25 12:47:33;;;;;;;5.15;3.92;;;;;;;16.48;47.36;98318.97;5128280;28;20043;-72
2022/04/25 12:50:06;;;;;;;4.13;3.40;;;;;;;16.32;47.21;98327.63;5128392;28;20039;-72